sensor_id;sensor_type;location;lat;lon;timestamp;pressure;altitude;pressure_sealevel;temperature;humidity
11053;BME280;55230;42.602;23.470;2023-03-04T00:00:07;93549.25;;;4.88;100.00
11053;BME280;55230;42.602;23.470;2023-03-04T00:02:34;93315.31;;;3.23;100.00
11053;BME280;55230;42.602;23.470;2023-03-04T00:05:01;93445.84;;;4.46;100.00
11053;BME280;55230;42.602;23.470;2023-03-04T00:07:29;93515.97;;;5.12;100.00
11053;BME280;55230;42.602;23.470;2023-03-04T00:09:55;93482.00;;;4.93;100.00
11053;BME280;55230;42.602;23.470;2023-03-04T00:12:23;93501.44;;;5.13;100.00
11053;BME280;55230;42.602;23.470;2023-03-04T00:14:50;93420.13;;;4.75;100.00
11053;BME280;55230;42.602;23.470;2023-03-04T00:17:17;93407.03;;;4.61;100.00
11053;BME280;55230;42.602;23.470;2023-03-04T00:19:44;93484.72;;;5.09;100.00
11053;BME280;55230;42.602;23.470;2023-03-04T00:22:11;93460.34;;;4.88;100.00
11053;BME280;55230;42.602;23.470;2023-03-04T00:24:37;93470.19;;;4.71;100.00
11053;BME280;55230;42.602;23.470;2023-03-04T00:27:04;93458.53;;;4.61;100.00
11053;BME280;55230;42.602;23.470;2023-03-04T00:29:32;93488.91;;;4.71;100.00
11053;BME280;55230;42.602;23.470;2023-03-04T00:31:59;93511.50;;;4.86;100.00
11053;BME280;55230;42.602;23.470;2023-03-04T00:34:26;93456.47;;;4.49;100.00
11053;BME280;55230;42.602;23.470;2023-03-04T00:36:53;93496.63;;;4.65;100.00
11053;BME280;55230;42.602;23.470;2023-03-04T00:39:25;93498.00;;;4.73;100.00
11053;BME280;55230;42.602;23.470;2023-03-04T00:41:52;93429.88;;;4.00;100.00
11053;BME280;55230;42.602;23.470;2023-03-04T00:44:19;93515.25;;;4.89;100.00
11053;BME280;55230;42.602;23.470;2023-03-04T00:46:47;93503.22;;;5.00;100.00
11053;BME280;55230;42.602;23.470;2023-03-04T00:49:14;93501.78;;;4.96;100.00
11053;BME280;55230;42.602;23.470;2023-03-04T00:51:41;93512.63;;;5.08;100.00
11053;BME280;55230;42.602;23.470;2023-03-04T00:54:07;93399.03;;;4.61;100.00
11053;BME280;55230;42.602;23.470;2023-03-04T00:56:34;93395.69;;;4.57;100.00
11053;BME280;55230;42.602;23.470;2023-03-04T00:59:01;93473.56;;;5.14;100.00
11053;BME280;55230;42.602;23.470;2023-03-04T01:01:27;93524.13;;;5.44;100.00
11053;BME280;55230;42.602;23.470;2023-03-04T01:03:55;93464.09;;;5.10;100.00
11053;BME280;55230;42.602;23.470;2023-03-04T01:06:22;93176.53;;;3.37;100.00
11053;BME280;55230;42.602;23.470;2023-03-04T01:08:49;93491.97;;;5.28;100.00
11053;BME280;55230;42.602;23.470;2023-03-04T01:11:16;93398.16;;;4.67;100.00
11053;BME280;55230;42.602;23.470;2023-03-04T01:13:43;93483.50;;;5.14;100.00
11053;BME280;55230;42.602;23.470;2023-03-04T01:16:09;93394.47;;;4.19;100.00
11053;BME280;55230;42.602;23.470;2023-03-04T01:18:37;93352.81;;;3.82;100.00
11053;BME280;55230;42.602;23.470;2023-03-04T01:21:05;92991.16;;;1.43;100.00
11053;BME280;55230;42.602;23.470;2023-03-04T01:23:32;93491.09;;;4.76;100.00
11053;BME280;55230;42.602;23.470;2023-03-04T01:25:59;93470.53;;;4.73;100.00
11053;BME280;55230;42.602;23.470;2023-03-04T01:28:26;93474.28;;;4.10;100.00
11053;BME280;55230;42.602;23.470;2023-03-04T01:30:52;93044.66;;;1.71;100.00
11053;BME280;55230;42.602;23.470;2023-03-04T01:33:19;93365.97;;;3.93;100.00
11053;BME280;55230;42.602;23.470;2023-03-04T01:35:46;93446.00;;;4.16;100.00
11053;BME280;55230;42.602;23.470;2023-03-04T01:38:14;93470.53;;;4.30;100.00
11053;BME280;55230;42.602;23.470;2023-03-04T01:40:41;93389.75;;;3.84;100.00
11053;BME280;55230;42.602;23.470;2023-03-04T01:43:11;93497.16;;;4.57;100.00
11053;BME280;55230;42.602;23.470;2023-03-04T01:45:42;93418.72;;;4.28;100.00
11053;BME280;55230;42.602;23.470;2023-03-04T01:48:10;93356.38;;;3.95;100.00
11053;BME280;55230;42.602;23.470;2023-03-04T01:50:39;93439.63;;;4.52;100.00
11053;BME280;55230;42.602;23.470;2023-03-04T01:53:06;93309.31;;;3.66;100.00
11053;BME280;55230;42.602;23.470;2023-03-04T01:55:36;93313.00;;;3.72;100.00
11053;BME280;55230;42.602;23.470;2023-03-04T01:58:04;93408.06;;;4.47;100.00
11053;BME280;55230;42.602;23.470;2023-03-04T02:00:33;93361.63;;;4.22;100.00
11053;BME280;55230;42.602;23.470;2023-03-04T02:03:04;93196.78;;;3.12;100.00
11053;BME280;55230;42.602;23.470;2023-03-04T02:05:33;93454.63;;;4.66;100.00
11053;BME280;55230;42.602;23.470;2023-03-04T02:08:02;93355.72;;;3.68;100.00
11053;BME280;55230;42.602;23.470;2023-03-04T02:10:29;93426.09;;;4.20;100.00
11053;BME280;55230;42.602;23.470;2023-03-04T02:12:59;93450.72;;;4.51;100.00
11053;BME280;55230;42.602;23.470;2023-03-04T02:15:26;93391.47;;;4.17;100.00
11053;BME280;55230;42.602;23.470;2023-03-04T02:17:53;93448.69;;;4.58;100.00
11053;BME280;55230;42.602;23.470;2023-03-04T02:20:42;93353.47;;;3.90;100.00
11053;BME280;55230;42.602;23.470;2023-03-04T02:23:15;93447.38;;;4.24;100.00
11053;BME280;55230;42.602;23.470;2023-03-04T02:25:46;93358.63;;;4.20;100.00
11053;BME280;55230;42.602;23.470;2023-03-04T02:28:16;93384.09;;;4.44;100.00
11053;BME280;55230;42.602;23.470;2023-03-04T02:30:43;93438.81;;;4.75;100.00
11053;BME280;55230;42.602;23.470;2023-03-04T02:33:14;93445.59;;;4.99;100.00
11053;BME280;55230;42.602;23.470;2023-03-04T02:35:41;93439.72;;;4.88;100.00
11053;BME280;55230;42.602;23.470;2023-03-04T02:38:09;93234.97;;;3.68;100.00
11053;BME280;55230;42.602;23.470;2023-03-04T02:40:36;93440.59;;;5.01;100.00
11053;BME280;55230;42.602;23.470;2023-03-04T02:43:05;93447.13;;;5.00;100.00
11053;BME280;55230;42.602;23.470;2023-03-04T02:45:37;93446.09;;;4.94;100.00
11053;BME280;55230;42.602;23.470;2023-03-04T02:48:07;93432.72;;;4.74;100.00
11053;BME280;55230;42.602;23.470;2023-03-04T02:50:36;93441.81;;;4.57;100.00
11053;BME280;55230;42.602;23.470;2023-03-04T02:53:04;93142.41;;;2.40;100.00
11053;BME280;55230;42.602;23.470;2023-03-04T02:55:30;93437.59;;;4.37;100.00
11053;BME280;55230;42.602;23.470;2023-03-04T02:57:58;93439.25;;;4.31;100.00
11053;BME280;55230;42.602;23.470;2023-03-04T03:00:25;93320.56;;;3.53;100.00
11053;BME280;55230;42.602;23.470;2023-03-04T03:02:53;93433.22;;;4.27;100.00
11053;BME280;55230;42.602;23.470;2023-03-04T03:05:21;93278.59;;;3.34;100.00
11053;BME280;55230;42.602;23.470;2023-03-04T03:07:48;93438.66;;;4.43;100.00
11053;BME280;55230;42.602;23.470;2023-03-04T03:10:15;93399.69;;;4.26;100.00
11053;BME280;55230;42.602;23.470;2023-03-04T03:12:42;93435.59;;;4.64;100.00
11053;BME280;55230;42.602;23.470;2023-03-04T03:15:10;93449.63;;;4.68;100.00
11053;BME280;55230;42.602;23.470;2023-03-04T03:17:36;93432.41;;;4.72;100.00
11053;BME280;55230;42.602;23.470;2023-03-04T03:20:06;93427.72;;;4.77;100.00
11053;BME280;55230;42.602;23.470;2023-03-04T03:22:33;93214.31;;;3.09;100.00
11053;BME280;55230;42.602;23.470;2023-03-04T03:25:00;93372.00;;;3.97;100.00
11053;BME280;55230;42.602;23.470;2023-03-04T03:27:27;93374.09;;;4.09;100.00
11053;BME280;55230;42.602;23.470;2023-03-04T03:29:54;93432.38;;;4.53;100.00
11053;BME280;55230;42.602;23.470;2023-03-04T03:32:21;93445.84;;;4.46;100.00
11053;BME280;55230;42.602;23.470;2023-03-04T03:34:47;93435.28;;;4.39;100.00
11053;BME280;55230;42.602;23.470;2023-03-04T03:37:16;93383.16;;;3.92;100.00
11053;BME280;55230;42.602;23.470;2023-03-04T03:39:43;93421.09;;;3.99;100.00
11053;BME280;55230;42.602;23.470;2023-03-04T03:42:10;93362.59;;;3.42;100.00
11053;BME280;55230;42.602;23.470;2023-03-04T03:44:36;93085.75;;;1.33;100.00
11053;BME280;55230;42.602;23.470;2023-03-04T03:47:03;93354.91;;;3.21;100.00
11053;BME280;55230;42.602;23.470;2023-03-04T03:49:30;93289.31;;;2.81;100.00
11053;BME280;55230;42.602;23.470;2023-03-04T03:51:57;93397.91;;;3.50;100.00
11053;BME280;55230;42.602;23.470;2023-03-04T03:54:25;93403.66;;;3.48;100.00
11053;BME280;55230;42.602;23.470;2023-03-04T03:56:52;93379.09;;;3.34;100.00
11053;BME280;55230;42.602;23.470;2023-03-04T03:59:18;93418.31;;;3.60;100.00
11053;BME280;55230;42.602;23.470;2023-03-04T04:01:45;93413.78;;;3.57;100.00
11053;BME280;55230;42.602;23.470;2023-03-04T04:04:12;93417.13;;;3.38;100.00
11053;BME280;55230;42.602;23.470;2023-03-04T04:06:39;93414.72;;;3.43;100.00
11053;BME280;55230;42.602;23.470;2023-03-04T04:09:06;93412.47;;;3.42;100.00
11053;BME280;55230;42.602;23.470;2023-03-04T04:11:34;93314.47;;;2.77;100.00
11053;BME280;55230;42.602;23.470;2023-03-04T04:14:01;92941.09;;;0.24;100.00
11053;BME280;55230;42.602;23.470;2023-03-04T04:16:28;93422.50;;;3.34;100.00
11053;BME280;55230;42.602;23.470;2023-03-04T04:18:55;93345.78;;;2.96;100.00
11053;BME280;55230;42.602;23.470;2023-03-04T04:21:21;93369.97;;;2.78;100.00
11053;BME280;55230;42.602;23.470;2023-03-04T04:23:48;92951.50;;;0.38;100.00
11053;BME280;55230;42.602;23.470;2023-03-04T04:26:15;93240.69;;;2.24;100.00
11053;BME280;55230;42.602;23.470;2023-03-04T04:28:43;93323.47;;;2.86;100.00
11053;BME280;55230;42.602;23.470;2023-03-04T04:31:10;93307.09;;;2.88;100.00
11053;BME280;55230;42.602;23.470;2023-03-04T04:33:37;93409.75;;;3.72;100.00
11053;BME280;55230;42.602;23.470;2023-03-04T04:36:04;93431.38;;;3.78;100.00
11053;BME280;55230;42.602;23.470;2023-03-04T04:38:31;93351.34;;;3.31;100.00
11053;BME280;55230;42.602;23.470;2023-03-04T04:40:58;93223.06;;;2.33;100.00
11053;BME280;55230;42.602;23.470;2023-03-04T04:43:25;93389.41;;;3.59;100.00
11053;BME280;55230;42.602;23.470;2023-03-04T04:45:53;93358.44;;;3.41;100.00
11053;BME280;55230;42.602;23.470;2023-03-04T04:48:20;93440.47;;;3.80;100.00
11053;BME280;55230;42.602;23.470;2023-03-04T04:50:53;93319.25;;;3.15;100.00
11053;BME280;55230;42.602;23.470;2023-03-04T04:53:20;93406.44;;;3.65;100.00
11053;BME280;55230;42.602;23.470;2023-03-04T04:55:46;93359.94;;;3.42;100.00
11053;BME280;55230;42.602;23.470;2023-03-04T04:58:13;93408.41;;;3.61;100.00
11053;BME280;55230;42.602;23.470;2023-03-04T05:00:40;93407.81;;;3.49;100.00
11053;BME280;55230;42.602;23.470;2023-03-04T05:03:08;93414.50;;;3.34;100.00
11053;BME280;55230;42.602;23.470;2023-03-04T05:05:35;93363.63;;;2.99;100.00
11053;BME280;55230;42.602;23.470;2023-03-04T05:08:02;93364.94;;;3.14;100.00
11053;BME280;55230;42.602;23.470;2023-03-04T05:10:28;93433.66;;;3.52;100.00
11053;BME280;55230;42.602;23.470;2023-03-04T05:12:55;93320.97;;;2.76;100.00
11053;BME280;55230;42.602;23.470;2023-03-04T05:15:22;93448.41;;;3.61;100.00
11053;BME280;55230;42.602;23.470;2023-03-04T05:17:49;93429.75;;;3.61;100.00
11053;BME280;55230;42.602;23.470;2023-03-04T05:20:17;93429.97;;;3.70;100.00
11053;BME280;55230;42.602;23.470;2023-03-04T05:22:44;92966.72;;;0.68;100.00
11053;BME280;55230;42.602;23.470;2023-03-04T05:25:11;93449.84;;;3.92;100.00
11053;BME280;55230;42.602;23.470;2023-03-04T05:27:38;93434.47;;;3.49;100.00
11053;BME280;55230;42.602;23.470;2023-03-04T05:30:05;93459.09;;;4.07;100.00
11053;BME280;55230;42.602;23.470;2023-03-04T05:32:32;93368.22;;;3.48;100.00
11053;BME280;55230;42.602;23.470;2023-03-04T05:34:59;93449.69;;;4.22;100.00
11053;BME280;55230;42.602;23.470;2023-03-04T05:37:27;93402.72;;;3.82;100.00
11053;BME280;55230;42.602;23.470;2023-03-04T05:39:54;93400.13;;;4.01;100.00
11053;BME280;55230;42.602;23.470;2023-03-04T05:42:21;93447.03;;;4.22;100.00
11053;BME280;55230;42.602;23.470;2023-03-04T05:44:48;93455.44;;;4.43;100.00
11053;BME280;55230;42.602;23.470;2023-03-04T05:47:14;93382.75;;;3.93;100.00
11053;BME280;55230;42.602;23.470;2023-03-04T05:49:41;93416.25;;;4.37;100.00
11053;BME280;55230;42.602;23.470;2023-03-04T05:52:08;93371.13;;;4.03;100.00
11053;BME280;55230;42.602;23.470;2023-03-04T05:54:37;93423.31;;;4.27;100.00
11053;BME280;55230;42.602;23.470;2023-03-04T05:57:03;93306.16;;;3.47;100.00
11053;BME280;55230;42.602;23.470;2023-03-04T05:59:30;93453.00;;;4.29;100.00
11053;BME280;55230;42.602;23.470;2023-03-04T06:01:57;93376.94;;;3.75;100.00
11053;BME280;55230;42.602;23.470;2023-03-04T06:04:24;93454.16;;;4.28;100.00
11053;BME280;55230;42.602;23.470;2023-03-04T06:06:50;93296.97;;;3.02;100.00
11053;BME280;55230;42.602;23.470;2023-03-04T06:09:17;93467.47;;;4.09;100.00
11053;BME280;55230;42.602;23.470;2023-03-04T06:11:46;93421.03;;;3.80;100.00
11053;BME280;55230;42.602;23.470;2023-03-04T06:14:13;93467.94;;;4.04;100.00
11053;BME280;55230;42.602;23.470;2023-03-04T06:16:40;93466.28;;;4.10;100.00
11053;BME280;55230;42.602;23.470;2023-03-04T06:19:07;93360.59;;;3.23;100.00
11053;BME280;55230;42.602;23.470;2023-03-04T06:21:34;93472.97;;;3.72;100.00
11053;BME280;55230;42.602;23.470;2023-03-04T06:24:00;93409.56;;;3.60;100.00
11053;BME280;55230;42.602;23.470;2023-03-04T06:26:27;93471.97;;;4.12;100.00
11053;BME280;55230;42.602;23.470;2023-03-04T06:28:55;93413.03;;;3.57;100.00
11053;BME280;55230;42.602;23.470;2023-03-04T06:31:22;93280.28;;;2.75;100.00
11053;BME280;55230;42.602;23.470;2023-03-04T06:33:49;93289.53;;;2.67;100.00
11053;BME280;55230;42.602;23.470;2023-03-04T06:36:16;93328.66;;;3.46;100.00
11053;BME280;55230;42.602;23.470;2023-03-04T06:38:42;93216.84;;;2.44;100.00
11053;BME280;55230;42.602;23.470;2023-03-04T06:41:10;93130.53;;;1.95;100.00
11053;BME280;55230;42.602;23.470;2023-03-04T06:43:38;93478.03;;;4.58;100.00
11053;BME280;55230;42.602;23.470;2023-03-04T06:46:06;93252.53;;;2.99;100.00
11053;BME280;55230;42.602;23.470;2023-03-04T06:48:34;93514.25;;;4.59;100.00
11053;BME280;55230;42.602;23.470;2023-03-04T06:51:05;93380.78;;;3.74;100.00
11053;BME280;55230;42.602;23.470;2023-03-04T06:53:32;93478.34;;;4.84;100.00
11053;BME280;55230;42.602;23.470;2023-03-04T06:55:59;93483.69;;;4.84;100.00
11053;BME280;55230;42.602;23.470;2023-03-04T06:58:25;93488.63;;;4.85;100.00
11053;BME280;55230;42.602;23.470;2023-03-04T07:00:52;93489.22;;;4.73;100.00
11053;BME280;55230;42.602;23.470;2023-03-04T07:03:20;93448.41;;;4.30;100.00
11053;BME280;55230;42.602;23.470;2023-03-04T07:05:48;93494.25;;;4.48;100.00
11053;BME280;55230;42.602;23.470;2023-03-04T07:08:14;93458.19;;;4.17;100.00
11053;BME280;55230;42.602;23.470;2023-03-04T07:10:41;93488.22;;;4.21;100.00
11053;BME280;55230;42.602;23.470;2023-03-04T07:13:08;93523.97;;;4.27;100.00
11053;BME280;55230;42.602;23.470;2023-03-04T07:15:36;93377.97;;;3.58;100.00
11053;BME280;55230;42.602;23.470;2023-03-04T07:18:03;93479.97;;;4.35;100.00
11053;BME280;55230;42.602;23.470;2023-03-04T07:20:31;93494.19;;;4.28;100.00
11053;BME280;55230;42.602;23.470;2023-03-04T07:22:58;93496.41;;;4.33;100.00
11053;BME280;55230;42.602;23.470;2023-03-04T07:25:25;93493.78;;;4.53;100.00
11053;BME280;55230;42.602;23.470;2023-03-04T07:27:51;93379.75;;;3.65;100.00
11053;BME280;55230;42.602;23.470;2023-03-04T07:30:18;93524.44;;;4.45;100.00
11053;BME280;55230;42.602;23.470;2023-03-04T07:32:45;93578.16;;;4.47;100.00
11053;BME280;55230;42.602;23.470;2023-03-04T07:35:12;93481.91;;;4.34;100.00
11053;BME280;55230;42.602;23.470;2023-03-04T07:37:40;93502.38;;;4.41;100.00
11053;BME280;55230;42.602;23.470;2023-03-04T07:40:08;93430.88;;;3.86;100.00
11053;BME280;55230;42.602;23.470;2023-03-04T07:42:35;93295.19;;;2.96;100.00
11053;BME280;55230;42.602;23.470;2023-03-04T07:45:03;93495.22;;;4.11;100.00
11053;BME280;55230;42.602;23.470;2023-03-04T07:47:30;93453.28;;;3.89;100.00
11053;BME280;55230;42.602;23.470;2023-03-04T07:49:57;93495.47;;;4.20;100.00
11053;BME280;55230;42.602;23.470;2023-03-04T07:52:24;93294.19;;;2.86;100.00
11053;BME280;55230;42.602;23.470;2023-03-04T07:54:52;93481.44;;;4.16;100.00
11053;BME280;55230;42.602;23.470;2023-03-04T07:57:19;93358.75;;;3.43;100.00
11053;BME280;55230;42.602;23.470;2023-03-04T07:59:46;93248.06;;;2.66;100.00
11053;BME280;55230;42.602;23.470;2023-03-04T08:02:13;93473.97;;;4.31;100.00
11053;BME280;55230;42.602;23.470;2023-03-04T08:04:39;93197.56;;;2.63;100.00
11053;BME280;55230;42.602;23.470;2023-03-04T08:07:06;93541.97;;;4.69;100.00
11053;BME280;55230;42.602;23.470;2023-03-04T08:09:33;93416.50;;;4.23;100.00
11053;BME280;55230;42.602;23.470;2023-03-04T08:12:01;93478.81;;;4.79;100.00
11053;BME280;55230;42.602;23.470;2023-03-04T08:14:28;93466.97;;;4.99;100.00
11053;BME280;55230;42.602;23.470;2023-03-04T08:16:55;93495.94;;;5.40;100.00
11053;BME280;55230;42.602;23.470;2023-03-04T08:19:21;93480.13;;;5.10;100.00
11053;BME280;55230;42.602;23.470;2023-03-04T08:21:48;93502.19;;;5.33;100.00
11053;BME280;55230;42.602;23.470;2023-03-04T08:24:15;93486.09;;;4.98;100.00
11053;BME280;55230;42.602;23.470;2023-03-04T08:26:43;93492.34;;;5.11;100.00
11053;BME280;55230;42.602;23.470;2023-03-04T08:29:14;93312.69;;;3.89;100.00
11053;BME280;55230;42.602;23.470;2023-03-04T08:31:41;93495.84;;;4.65;100.00
11053;BME280;55230;42.602;23.470;2023-03-04T08:34:11;93403.97;;;4.43;100.00
11053;BME280;55230;42.602;23.470;2023-03-04T08:36:39;93389.16;;;4.58;100.00
11053;BME280;55230;42.602;23.470;2023-03-04T08:39:07;93479.09;;;5.23;100.00
11053;BME280;55230;42.602;23.470;2023-03-04T08:41:34;93485.41;;;5.13;100.00
11053;BME280;55230;42.602;23.470;2023-03-04T08:44:01;93460.06;;;4.82;100.00
11053;BME280;55230;42.602;23.470;2023-03-04T08:46:29;93491.72;;;5.23;100.00
11053;BME280;55230;42.602;23.470;2023-03-04T08:48:56;93468.41;;;4.84;100.00
11053;BME280;55230;42.602;23.470;2023-03-04T08:51:23;93511.13;;;5.07;100.00
11053;BME280;55230;42.602;23.470;2023-03-04T08:53:49;93455.19;;;4.77;100.00
11053;BME280;55230;42.602;23.470;2023-03-04T08:56:16;93417.38;;;4.39;100.00
11053;BME280;55230;42.602;23.470;2023-03-04T08:58:43;93063.97;;;2.02;100.00
11053;BME280;55230;42.602;23.470;2023-03-04T09:01:12;93476.69;;;5.09;100.00
11053;BME280;55230;42.602;23.470;2023-03-04T09:03:40;93481.81;;;5.39;100.00
11053;BME280;55230;42.602;23.470;2023-03-04T09:06:11;93480.81;;;5.69;100.00
11053;BME280;55230;42.602;23.470;2023-03-04T09:08:39;93198.44;;;3.88;100.00
11053;BME280;55230;42.602;23.470;2023-03-04T09:11:06;93083.41;;;3.30;100.00
11053;BME280;55230;42.602;23.470;2023-03-04T09:13:33;93386.56;;;5.45;100.00
11053;BME280;55230;42.602;23.470;2023-03-04T09:16:00;93391.63;;;5.24;100.00
11053;BME280;55230;42.602;23.470;2023-03-04T09:18:27;93471.75;;;5.47;100.00
11053;BME280;55230;42.602;23.470;2023-03-04T09:20:56;93222.44;;;3.88;100.00
11053;BME280;55230;42.602;23.470;2023-03-04T09:23:23;93199.56;;;3.87;100.00
11053;BME280;55230;42.602;23.470;2023-03-04T09:25:49;93326.97;;;4.41;100.00
11053;BME280;55230;42.602;23.470;2023-03-04T09:28:17;93465.69;;;5.78;100.00
11053;BME280;55230;42.602;23.470;2023-03-04T09:30:44;93458.75;;;5.81;100.00
11053;BME280;55230;42.602;23.470;2023-03-04T09:33:12;93192.84;;;4.18;100.00
11053;BME280;55230;42.602;23.470;2023-03-04T09:35:39;93549.47;;;6.11;100.00
11053;BME280;55230;42.602;23.470;2023-03-04T09:38:07;93447.00;;;5.95;100.00
11053;BME280;55230;42.602;23.470;2023-03-04T09:40:38;93466.31;;;6.34;100.00
11053;BME280;55230;42.602;23.470;2023-03-04T09:43:11;93305.25;;;4.95;100.00
11053;BME280;55230;42.602;23.470;2023-03-04T09:45:43;93462.28;;;5.78;100.00
11053;BME280;55230;42.602;23.470;2023-03-04T09:48:15;93373.63;;;5.44;100.00
11053;BME280;55230;42.602;23.470;2023-03-04T09:50:50;93113.44;;;3.50;100.00
11053;BME280;55230;42.602;23.470;2023-03-04T09:53:24;93402.09;;;5.86;100.00
11053;BME280;55230;42.602;23.470;2023-03-04T09:55:56;93417.97;;;5.93;100.00
11053;BME280;55230;42.602;23.470;2023-03-04T09:58:31;93452.31;;;6.59;100.00
11053;BME280;55230;42.602;23.470;2023-03-04T10:01:03;93337.16;;;6.14;100.00
11053;BME280;55230;42.602;23.470;2023-03-04T10:03:41;93445.56;;;7.24;100.00
11053;BME280;55230;42.602;23.470;2023-03-04T10:06:11;93404.13;;;7.25;100.00
11053;BME280;55230;42.602;23.470;2023-03-04T10:08:44;93445.56;;;7.49;98.33
11053;BME280;55230;42.602;23.470;2023-03-04T10:11:16;93440.44;;;7.67;96.66
11053;BME280;55230;42.602;23.470;2023-03-04T10:13:52;93395.88;;;7.82;97.09
11053;BME280;55230;42.602;23.470;2023-03-04T10:16:21;93432.94;;;7.87;94.38
11053;BME280;55230;42.602;23.470;2023-03-04T10:18:54;93429.69;;;7.92;97.69
11053;BME280;55230;42.602;23.470;2023-03-04T10:21:26;93403.72;;;7.89;93.69
11053;BME280;55230;42.602;23.470;2023-03-04T10:23:57;93337.09;;;7.25;93.86
11053;BME280;55230;42.602;23.470;2023-03-04T10:26:29;93370.03;;;7.88;94.98
11053;BME280;55230;42.602;23.470;2023-03-04T10:28:57;93287.06;;;6.68;92.07
11053;BME280;55230;42.602;23.470;2023-03-04T10:31:31;93195.84;;;5.64;94.02
11053;BME280;55230;42.602;23.470;2023-03-04T10:34:01;93424.28;;;7.17;95.63
11053;BME280;55230;42.602;23.470;2023-03-04T10:36:52;93390.22;;;6.76;96.14
11053;BME280;55230;42.602;23.470;2023-03-04T10:39:25;93397.03;;;7.06;96.14
11053;BME280;55230;42.602;23.470;2023-03-04T10:41:55;93396.88;;;7.63;95.06
11053;BME280;55230;42.602;23.470;2023-03-04T10:44:23;93316.91;;;7.46;96.38
11053;BME280;55230;42.602;23.470;2023-03-04T10:46:52;93413.38;;;8.25;90.61
11053;BME280;55230;42.602;23.470;2023-03-04T10:49:20;93404.13;;;8.26;89.73
11053;BME280;55230;42.602;23.470;2023-03-04T10:51:50;93407.56;;;8.13;89.97
11053;BME280;55230;42.602;23.470;2023-03-04T10:54:27;93396.88;;;7.63;91.84
11053;BME280;55230;42.602;23.470;2023-03-04T10:56:58;93398.59;;;7.57;93.63
11053;BME280;55230;42.602;23.470;2023-03-04T10:59:40;93363.25;;;7.09;94.72
11053;BME280;55230;42.602;23.470;2023-03-04T11:02:29;93291.16;;;6.32;98.06
11053;BME280;55230;42.602;23.470;2023-03-04T11:05:15;93374.53;;;6.75;99.08
11053;BME280;55230;42.602;23.470;2023-03-04T11:07:44;93289.78;;;6.27;99.86
11053;BME280;55230;42.602;23.470;2023-03-04T11:10:17;93381.94;;;6.71;99.45
11053;BME280;55230;42.602;23.470;2023-03-04T11:12:48;93368.06;;;7.01;98.83
11053;BME280;55230;42.602;23.470;2023-03-04T11:15:17;93343.31;;;7.47;100.00
11053;BME280;55230;42.602;23.470;2023-03-04T11:17:47;93289.34;;;7.20;94.56
11053;BME280;55230;42.602;23.470;2023-03-04T11:20:20;93318.00;;;7.36;93.39
11053;BME280;55230;42.602;23.470;2023-03-04T11:22:51;93275.75;;;7.15;93.21
11053;BME280;55230;42.602;23.470;2023-03-04T11:25:24;93244.97;;;7.19;91.19
11053;BME280;55230;42.602;23.470;2023-03-04T11:27:55;93345.00;;;8.38;92.98
11053;BME280;55230;42.602;23.470;2023-03-04T11:30:33;93343.66;;;8.43;92.83
11053;BME280;55230;42.602;23.470;2023-03-04T11:33:21;93340.66;;;8.84;89.33
11053;BME280;55230;42.602;23.470;2023-03-04T11:36:02;93253.78;;;8.35;88.75
11053;BME280;55230;42.602;23.470;2023-03-04T11:38:35;93343.28;;;9.18;87.12
11053;BME280;55230;42.602;23.470;2023-03-04T11:41:10;93342.59;;;9.35;84.83
11053;BME280;55230;42.602;23.470;2023-03-04T11:43:39;93332.44;;;9.79;87.25
11053;BME280;55230;42.602;23.470;2023-03-04T11:49:42;93300.50;;;9.11;82.98
11053;BME280;55230;42.602;23.470;2023-03-04T11:52:21;93113.31;;;8.03;85.28
11053;BME280;55230;42.602;23.470;2023-03-04T11:55:03;93329.59;;;9.34;82.73
11053;BME280;55230;42.602;23.470;2023-03-04T11:57:38;93230.31;;;8.13;86.34
11053;BME280;55230;42.602;23.470;2023-03-04T12:00:21;92935.13;;;6.07;86.46
11053;BME280;55230;42.602;23.470;2023-03-04T12:03:03;93243.81;;;7.54;89.76
11053;BME280;55230;42.602;23.470;2023-03-04T12:05:43;93309.19;;;8.63;89.38
11053;BME280;55230;42.602;23.470;2023-03-04T12:08:32;93296.81;;;8.65;89.45
11053;BME280;55230;42.602;23.470;2023-03-04T12:11:06;93113.81;;;7.12;87.94
11053;BME280;55230;42.602;23.470;2023-03-04T12:13:58;93313.13;;;8.71;89.24
11053;BME280;55230;42.602;23.470;2023-03-04T12:16:47;93278.94;;;8.50;86.88
11053;BME280;55230;42.602;23.470;2023-03-04T12:19:25;92912.41;;;6.11;87.44
11053;BME280;55230;42.602;23.470;2023-03-04T12:22:15;93267.78;;;8.17;88.26
11053;BME280;55230;42.602;23.470;2023-03-04T12:25:06;93203.53;;;8.23;88.13
11053;BME280;55230;42.602;23.470;2023-03-04T12:27:42;93219.44;;;8.60;87.96
11053;BME280;55230;42.602;23.470;2023-03-04T12:30:28;93297.34;;;9.43;86.06
11053;BME280;55230;42.602;23.470;2023-03-04T12:33:03;93309.22;;;9.24;83.38
11053;BME280;55230;42.602;23.470;2023-03-04T12:35:37;93283.63;;;9.68;85.75
11053;BME280;55230;42.602;23.470;2023-03-04T12:38:22;93256.97;;;9.43;83.36
11053;BME280;55230;42.602;23.470;2023-03-04T12:40:55;93273.13;;;9.43;84.40
11053;BME280;55230;42.602;23.470;2023-03-04T12:43:40;93278.53;;;9.61;86.28
11053;BME280;55230;42.602;23.470;2023-03-04T12:46:25;93228.31;;;9.09;84.28
11053;BME280;55230;42.602;23.470;2023-03-04T12:49:07;93202.38;;;8.85;83.73
11053;BME280;55230;42.602;23.470;2023-03-04T12:51:43;93267.16;;;9.48;83.51
11053;BME280;55230;42.602;23.470;2023-03-04T12:54:20;93219.28;;;9.34;83.17
11053;BME280;55230;42.602;23.470;2023-03-04T12:56:53;93262.69;;;9.54;83.79
11053;BME280;55230;42.602;23.470;2023-03-04T12:59:21;93061.88;;;8.45;83.48
11053;BME280;55230;42.602;23.470;2023-03-04T13:01:58;93258.72;;;9.28;83.39
11053;BME280;55230;42.602;23.470;2023-03-04T13:04:38;93249.72;;;9.22;86.96
11053;BME280;55230;42.602;23.470;2023-03-04T13:07:11;93148.50;;;8.05;88.11